createdAt,value
2023-04-25T00:02:16.874Z,96803.00
2023-04-25T00:04:45.866Z,96809.00
2023-04-25T00:07:14.433Z,96809.00
2023-04-25T00:09:44.558Z,96804.00
2023-04-25T00:12:12.722Z,96793.00
2023-04-25T00:14:42.390Z,96807.00
2023-04-25T00:17:10.595Z,96801.00
2023-04-25T00:19:38.875Z,96809.00
2023-04-25T00:22:07.217Z,96808.00
2023-04-25T00:24:35.372Z,96812.00
2023-04-25T00:27:03.527Z,96820.00
2023-04-25T00:29:31.726Z,96810.00
2023-04-25T00:32:01.714Z,96811.00
2023-04-25T00:34:30.037Z,96802.00
2023-04-25T00:36:58.549Z,96810.00
2023-04-25T00:39:26.730Z,96813.00
2023-04-25T00:41:56.708Z,96816.00
2023-04-25T00:44:27.676Z,96797.00
2023-04-25T00:46:56.572Z,96801.00
2023-04-25T00:49:26.103Z,96800.00
2023-04-25T00:51:54.335Z,96789.00
2023-04-25T00:54:22.937Z,96799.00
2023-04-25T00:56:51.264Z,96797.00
2023-04-25T00:59:21.156Z,96774.00
2023-04-25T01:01:49.413Z,96777.00
2023-04-25T01:04:17.799Z,96783.00
2023-04-25T01:06:48.050Z,96787.00
2023-04-25T01:09:17.151Z,96789.00
2023-04-25T01:11:46.676Z,96782.00
2023-04-25T01:14:14.909Z,96778.00
2023-04-25T01:16:43.743Z,96774.00
2023-04-25T01:19:13.314Z,96774.00
2023-04-25T01:21:43.102Z,96765.00
2023-04-25T01:24:11.504Z,96769.00
2023-04-25T01:26:41.132Z,96761.00
2023-04-25T01:29:10.326Z,96760.00
2023-04-25T01:31:39.379Z,96768.00
2023-04-25T01:34:07.922Z,96778.00
2023-04-25T01:36:36.569Z,96773.00
2023-04-25T01:39:06.562Z,96767.00
2023-04-25T01:41:36.273Z,96781.00
2023-04-25T01:44:05.469Z,96775.00
2023-04-25T01:46:34.983Z,96786.00
2023-04-25T01:49:03.482Z,96777.00
2023-04-25T01:51:32.618Z,96785.00
2023-04-25T01:54:01.479Z,96789.00
2023-04-25T01:56:34.373Z,96787.00
2023-04-25T01:59:03.418Z,96793.00
2023-04-25T02:01:54.290Z,96786.00
2023-04-25T02:04:28.540Z,96783.00
2023-04-25T02:06:57.151Z,96790.00
2023-04-25T02:09:31.064Z,96785.00
2023-04-25T02:12:01.456Z,96796.00
2023-04-25T02:14:36.702Z,96779.00
2023-04-25T02:17:14.998Z,96771.00
2023-04-25T02:19:43.371Z,96775.00
2023-04-25T02:22:11.749Z,96767.00
2023-04-25T02:24:41.187Z,96786.00
2023-04-25T02:27:10.900Z,96770.00
2023-04-25T02:29:39.144Z,96780.00
2023-04-25T02:32:07.437Z,96767.00
2023-04-25T02:34:35.626Z,96764.00
2023-04-25T02:37:03.921Z,96750.00
2023-04-25T02:39:32.025Z,96750.00
2023-04-25T02:42:00.221Z,96764.00
2023-04-25T02:44:32.749Z,96755.00
2023-04-25T02:47:00.915Z,96751.00
2023-04-25T02:49:29.118Z,96755.00
2023-04-25T02:51:57.246Z,96758.00
2023-04-25T02:54:25.629Z,96745.00
2023-04-25T02:56:54.069Z,96742.00
2023-04-25T02:59:27.875Z,96741.00
2023-04-25T03:01:57.450Z,96743.00
2023-04-25T03:04:26.354Z,96742.00
2023-04-25T03:06:55.272Z,96739.00
2023-04-25T03:09:23.811Z,96741.00
2023-04-25T03:11:54.099Z,96736.00
2023-04-25T03:14:22.514Z,96734.00
2023-04-25T03:16:50.834Z,96735.00
2023-04-25T03:19:21.333Z,96727.00
2023-04-25T03:21:50.547Z,96734.00
2023-04-25T03:24:19.585Z,96729.00
2023-04-25T03:26:47.818Z,96733.00
2023-04-25T03:29:16.007Z,96734.00
2023-04-25T03:31:45.534Z,96734.00
2023-04-25T03:34:15.614Z,96727.00
2023-04-25T03:36:45.389Z,96731.00
2023-04-25T03:39:14.404Z,96735.00
2023-04-25T03:41:47.333Z,96725.00
2023-04-25T03:44:16.810Z,96728.00
2023-04-25T03:46:45.550Z,96739.00
2023-04-25T03:49:14.532Z,96723.00
2023-04-25T03:51:59.558Z,96730.00
2023-04-25T03:54:27.837Z,96734.00
2023-04-25T03:57:08.395Z,96727.00
2023-04-25T03:59:39.976Z,96733.00
2023-04-25T04:02:10.632Z,96734.00
2023-04-25T04:04:39.176Z,96718.00
2023-04-25T04:07:11.572Z,96725.00
2023-04-25T04:09:42.695Z,96725.00
2023-04-25T04:12:16.560Z,96726.00
2023-04-25T04:14:44.979Z,96723.00
2023-04-25T04:17:13.662Z,96731.00
2023-04-25T04:19:42.018Z,96724.00
2023-04-25T04:22:21.538Z,96724.00
2023-04-25T04:24:50.837Z,96727.00
2023-04-25T04:27:24.102Z,96731.00
2023-04-25T04:30:15.761Z,96733.00
2023-04-25T04:32:58.700Z,96736.00
2023-04-25T04:35:27.205Z,96736.00
2023-04-25T04:37:57.268Z,96734.00
2023-04-25T04:40:28.749Z,96741.00
2023-04-25T04:43:06.984Z,96725.00
2023-04-25T04:45:57.089Z,96744.00
2023-04-25T04:48:42.573Z,96740.00
2023-04-25T04:51:39.292Z,96736.00
2023-04-25T04:54:19.244Z,96755.00
2023-04-25T04:57:22.550Z,96757.00
2023-04-25T05:00:12.007Z,96751.00
2023-04-25T05:02:43.190Z,96740.00
2023-04-25T05:05:17.514Z,96751.00
2023-04-25T05:08:00.623Z,96750.00
2023-04-25T05:10:48.674Z,96756.00
2023-04-25T05:13:35.853Z,96754.00
2023-04-25T05:16:23.046Z,96758.00
2023-04-25T05:18:57.946Z,96764.00
2023-04-25T05:21:35.338Z,96761.00
2023-04-25T05:24:11.674Z,96756.00
2023-04-25T05:26:54.074Z,96750.00
2023-04-25T05:29:37.472Z,96757.00
2023-04-25T05:32:28.295Z,96751.00
2023-04-25T05:34:57.245Z,96760.00
2023-04-25T05:37:28.859Z,96739.00
2023-04-25T05:40:00.967Z,96761.00
2023-04-25T05:42:53.032Z,96762.00
2023-04-25T05:45:30.457Z,96751.00
2023-04-25T05:48:08.010Z,96759.00
2023-04-25T05:50:58.748Z,96755.00
2023-04-25T05:53:47.207Z,96756.00
2023-04-25T05:56:16.764Z,96761.00
2023-04-25T05:58:46.341Z,96754.00
2023-04-25T06:01:15.051Z,96749.00
2023-04-25T06:03:44.440Z,96773.00
2023-04-25T06:06:13.825Z,96756.00
2023-04-25T06:08:42.719Z,96763.00
2023-04-25T06:11:13.204Z,96765.00
2023-04-25T06:13:41.589Z,96776.00
2023-04-25T06:16:11.503Z,96765.00
2023-04-25T06:18:40.206Z,96767.00
2023-04-25T06:21:08.634Z,96765.00
2023-04-25T06:23:36.868Z,96769.00
2023-04-25T06:26:08.501Z,96780.00
2023-04-25T06:28:39.598Z,96760.00
2023-04-25T06:31:07.917Z,96765.00
2023-04-25T06:33:37.654Z,96769.00
2023-04-25T06:36:07.019Z,96776.00
2023-04-25T06:38:36.375Z,96775.00
2023-04-25T06:41:04.663Z,96761.00
2023-04-25T06:43:36.383Z,96770.00
2023-04-25T06:46:18.302Z,96772.00
2023-04-25T06:48:51.341Z,96770.00
2023-04-25T06:51:23.573Z,96765.00
2023-04-25T06:53:54.787Z,96763.00
2023-04-25T06:56:39.642Z,96773.00
2023-04-25T06:59:13.355Z,96779.00
2023-04-25T07:01:42.806Z,96779.00
2023-04-25T07:04:19.982Z,96783.00
2023-04-25T07:06:52.652Z,96779.00
2023-04-25T07:09:25.944Z,96807.00
2023-04-25T07:11:54.385Z,96798.00
2023-04-25T07:14:22.748Z,96789.00
2023-04-25T07:16:51.012Z,96800.00
2023-04-25T07:19:20.678Z,96794.00
2023-04-25T07:21:48.865Z,96792.00
2023-04-25T07:24:17.606Z,96791.00
2023-04-25T07:26:48.401Z,96791.00
2023-04-25T07:29:26.751Z,96796.00
2023-04-25T07:31:55.701Z,96795.00
2023-04-25T07:34:25.643Z,96798.00
2023-04-25T07:36:54.730Z,96800.00
2023-04-25T07:39:24.404Z,96817.00
2023-04-25T07:41:55.197Z,96814.00
2023-04-25T07:44:27.434Z,96804.00
2023-04-25T07:46:55.601Z,96820.00
2023-04-25T07:49:25.426Z,96812.00
2023-04-25T07:51:53.706Z,96807.00
2023-04-25T07:54:22.963Z,96810.00
2023-04-25T07:56:58.768Z,96822.00
2023-04-25T07:59:31.007Z,96835.00
2023-04-25T08:02:03.434Z,96825.00
2023-04-25T08:04:33.565Z,96846.00
2023-04-25T08:07:05.369Z,96831.00
2023-04-25T08:09:40.972Z,96834.00
2023-04-25T08:12:15.336Z,96851.00
2023-04-25T08:14:43.897Z,96856.00
2023-04-25T08:17:13.062Z,96867.00
2023-04-25T08:19:44.684Z,96875.00
2023-04-25T08:22:21.314Z,96872.00
2023-04-25T08:24:55.491Z,96874.00
2023-04-25T08:27:24.676Z,96884.00
2023-04-25T08:29:53.383Z,96877.00
2023-04-25T08:32:22.904Z,96876.00
2023-04-25T08:35:12.939Z,96881.00
2023-04-25T08:37:41.197Z,96886.00
2023-04-25T08:40:17.828Z,96878.00
2023-04-25T08:42:59.429Z,96881.00
2023-04-25T08:45:31.302Z,96875.00
2023-04-25T08:48:00.763Z,96881.00
2023-04-25T08:50:31.728Z,96880.00
2023-04-25T08:53:06.406Z,96888.00
2023-04-25T08:55:35.595Z,96881.00
2023-04-25T08:58:04.821Z,96889.00
2023-04-25T09:00:33.361Z,96875.00
2023-04-25T09:03:01.926Z,96878.00
2023-04-25T09:05:36.455Z,96877.00
2023-04-25T09:08:04.987Z,96882.00
2023-04-25T09:10:33.404Z,96885.00
2023-04-25T09:13:06.865Z,96890.00
2023-04-25T09:15:52.154Z,96891.00
2023-04-25T09:18:38.591Z,96876.00
2023-04-25T09:21:14.388Z,96894.00
2023-04-25T09:23:48.299Z,96906.00
2023-04-25T09:26:18.939Z,96910.00
2023-04-25T09:28:48.952Z,96897.00
2023-04-25T09:31:25.449Z,96903.00
2023-04-25T09:34:04.074Z,96903.00
2023-04-25T09:36:42.958Z,96909.00
2023-04-25T09:39:23.165Z,96898.00
2023-04-25T09:42:04.534Z,96910.00
2023-04-25T09:44:33.820Z,96901.00
2023-04-25T09:47:04.446Z,96908.00
2023-04-25T09:49:33.606Z,96913.00
2023-04-25T09:52:07.513Z,96918.00
2023-04-25T09:54:42.755Z,96908.00
2023-04-25T09:57:18.764Z,96901.00
2023-04-25T09:59:49.697Z,96915.00
2023-04-25T10:02:21.306Z,96902.00
2023-04-25T10:04:56.394Z,96914.00
2023-04-25T10:07:40.651Z,96906.00
2023-04-25T10:10:15.696Z,96903.00
2023-04-25T10:12:45.217Z,96913.00
2023-04-25T10:15:15.806Z,96896.00
2023-04-25T10:17:45.772Z,96900.00
2023-04-25T10:20:14.871Z,96912.00
2023-04-25T10:22:49.000Z,96913.00
2023-04-25T10:25:17.588Z,96917.00
2023-04-25T10:27:45.983Z,96911.00
2023-04-25T10:30:17.412Z,96906.00
2023-04-25T10:32:48.109Z,96909.00
2023-04-25T10:35:19.407Z,96908.00
2023-04-25T10:38:06.332Z,96895.00
2023-04-25T10:40:35.191Z,96897.00
2023-04-25T10:43:38.471Z,96900.00
2023-04-25T10:46:20.486Z,96901.00
2023-04-25T10:48:51.407Z,96900.00
2023-04-25T10:51:23.840Z,96898.00
2023-04-25T10:54:03.073Z,96901.00
2023-04-25T10:56:33.265Z,96890.00
2023-04-25T10:59:11.099Z,96893.00
2023-04-25T11:01:42.240Z,96906.00
2023-04-25T11:04:24.127Z,96913.00
2023-04-25T11:07:15.296Z,96908.00
2023-04-25T11:09:47.672Z,96909.00
2023-04-25T11:12:16.078Z,96891.00
2023-04-25T11:14:44.388Z,96906.00
2023-04-25T11:17:12.866Z,96884.00
2023-04-25T11:19:41.241Z,96898.00
2023-04-25T11:22:14.102Z,96902.00
2023-04-25T11:24:42.738Z,96902.00
2023-04-25T11:27:12.437Z,96903.00
2023-04-25T11:29:40.791Z,96897.00
2023-04-25T11:32:09.673Z,96887.00
2023-04-25T11:34:38.040Z,96898.00
2023-04-25T11:37:06.933Z,96890.00
2023-04-25T11:39:35.793Z,96889.00
2023-04-25T11:42:08.337Z,96892.00
2023-04-25T11:44:43.362Z,96896.00
2023-04-25T11:47:11.542Z,96896.00
2023-04-25T11:49:39.662Z,96909.00
2023-04-25T11:52:09.636Z,96914.00
2023-04-25T11:54:38.924Z,96911.00
2023-04-25T11:57:07.376Z,96927.00
2023-04-25T11:59:36.092Z,96919.00
2023-04-25T12:02:07.950Z,96920.00
2023-04-25T12:04:36.636Z,96932.00
2023-04-25T12:07:05.295Z,96933.00
2023-04-25T12:09:35.812Z,96930.00
2023-04-25T12:12:04.737Z,96930.00
2023-04-25T12:14:35.191Z,96922.00
2023-04-25T12:17:08.852Z,96926.00
2023-04-25T12:19:41.176Z,96926.00
2023-04-25T12:22:23.156Z,96922.00
2023-04-25T12:24:51.629Z,96919.00
2023-04-25T12:27:20.309Z,96927.00
2023-04-25T12:29:56.681Z,96926.00
2023-04-25T12:32:27.278Z,96938.00
2023-04-25T12:34:55.545Z,96933.00
2023-04-25T12:37:23.789Z,96934.00
2023-04-25T12:39:52.240Z,96940.00
2023-04-25T12:42:20.534Z,96950.00
2023-04-25T12:44:48.700Z,96950.00
2023-04-25T12:47:17.090Z,96960.00
2023-04-25T12:49:46.606Z,96954.00
2023-04-25T12:52:14.834Z,96958.00
2023-04-25T12:54:43.023Z,96958.00
2023-04-25T12:57:12.275Z,96956.00
2023-04-25T12:59:40.537Z,96963.00
2023-04-25T13:02:08.846Z,96958.00
2023-04-25T13:04:37.300Z,96970.00
2023-04-25T13:07:07.185Z,96968.00
2023-04-25T13:09:35.498Z,96971.00
2023-04-25T13:12:03.639Z,96970.00
2023-04-25T13:14:31.869Z,96965.00
2023-04-25T13:17:00.222Z,96979.00
2023-04-25T13:19:28.530Z,96981.00
2023-04-25T13:21:56.867Z,96980.00
2023-04-25T13:24:26.950Z,96975.00
2023-04-25T13:26:55.132Z,96981.00
2023-04-25T13:29:23.334Z,96982.00
2023-04-25T13:31:51.558Z,96990.00
2023-04-25T13:34:19.714Z,96999.00
2023-04-25T13:36:48.009Z,96988.00
2023-04-25T13:39:16.243Z,96984.00
2023-04-25T13:41:45.923Z,97002.00
2023-04-25T13:44:14.070Z,97008.00
2023-04-25T13:46:46.968Z,97002.00
2023-04-25T13:49:16.522Z,97008.00
2023-04-25T13:51:44.910Z,97015.00
2023-04-25T13:54:13.234Z,97008.00
2023-04-25T13:56:43.132Z,97016.00
2023-04-25T13:59:13.090Z,97024.00
2023-04-25T14:01:41.389Z,97024.00
2023-04-25T14:04:10.418Z,97015.00
2023-04-25T14:06:38.697Z,97033.00
2023-04-25T14:09:08.066Z,97032.00
2023-04-25T14:11:36.338Z,97041.00
2023-04-25T14:14:05.001Z,97034.00
2023-04-25T14:16:36.393Z,97020.00
2023-04-25T14:19:04.785Z,97032.00
2023-04-25T14:21:34.258Z,97042.00
2023-04-25T14:24:02.575Z,97042.00
2023-04-25T14:26:31.139Z,97034.00
2023-04-25T14:28:59.566Z,97035.00
2023-04-25T14:31:28.081Z,97045.00
2023-04-25T14:33:59.418Z,97053.00
2023-04-25T14:36:28.517Z,97053.00
2023-04-25T14:38:56.976Z,97046.00
2023-04-25T14:41:25.917Z,97066.00
2023-04-25T14:43:54.858Z,97044.00
2023-04-25T14:46:24.260Z,97051.00
2023-04-25T14:48:53.160Z,97056.00
2023-04-25T14:51:22.771Z,97058.00
2023-04-25T14:53:51.503Z,97062.00
2023-04-25T14:56:20.134Z,97060.00
2023-04-25T14:58:48.329Z,97066.00
2023-04-25T15:01:16.818Z,97071.00
2023-04-25T15:03:45.263Z,97083.00
2023-04-25T15:06:13.726Z,97076.00
2023-04-25T15:08:43.317Z,97074.00
2023-04-25T15:11:12.946Z,97084.00
2023-04-25T15:13:41.405Z,97075.00
2023-04-25T15:16:09.684Z,97071.00
2023-04-25T15:18:37.927Z,97080.00
2023-04-25T15:21:06.550Z,97075.00
2023-04-25T15:23:34.724Z,97083.00
2023-04-25T15:26:04.374Z,97098.00
2023-04-25T15:28:34.628Z,97095.00
2023-04-25T15:31:02.940Z,97083.00
2023-04-25T15:33:31.291Z,97087.00
2023-04-25T15:35:59.722Z,97109.00
2023-04-25T15:38:28.006Z,97088.00
2023-04-25T15:40:56.282Z,97090.00
2023-04-25T15:43:26.395Z,97092.00
2023-04-25T15:45:54.792Z,97101.00
2023-04-25T15:48:23.105Z,97111.00
2023-04-25T15:50:51.418Z,97096.00
2023-04-25T15:53:19.748Z,97106.00
2023-04-25T15:55:48.112Z,97116.00
2023-04-25T15:58:16.432Z,97100.00
2023-04-25T16:00:48.875Z,97102.00
2023-04-25T16:03:17.825Z,97113.00
2023-04-25T16:05:46.269Z,97124.00
2023-04-25T16:08:14.565Z,97118.00
2023-04-25T16:10:43.245Z,97109.00
2023-04-25T16:13:11.890Z,97114.00
2023-04-25T16:15:40.826Z,97122.00
2023-04-25T16:18:10.435Z,97129.00
2023-04-25T16:20:38.661Z,97125.00
2023-04-25T16:23:06.894Z,97111.00
2023-04-25T16:25:35.259Z,97124.00
2023-04-25T16:28:03.491Z,97123.00
2023-04-25T16:30:31.710Z,97115.00
2023-04-25T16:33:03.761Z,97117.00
2023-04-25T16:35:33.446Z,97127.00
2023-04-25T16:38:02.280Z,97123.00
2023-04-25T16:40:30.684Z,97123.00
2023-04-25T16:42:58.882Z,97136.00
2023-04-25T16:45:27.769Z,97143.00
2023-04-25T16:47:56.178Z,97137.00
2023-04-25T16:50:24.489Z,97152.00
2023-04-25T16:52:54.532Z,97143.00
2023-04-25T16:55:22.835Z,97134.00
2023-04-25T16:57:51.070Z,97146.00
2023-04-25T17:00:20.292Z,97144.00
2023-04-25T17:02:48.581Z,97143.00
2023-04-25T17:05:16.917Z,97153.00
2023-04-25T17:07:45.073Z,97155.00
2023-04-25T17:10:14.647Z,97164.00
2023-04-25T17:12:43.067Z,97151.00
2023-04-25T17:15:12.739Z,97143.00
2023-04-25T17:17:41.105Z,97142.00
2023-04-25T17:20:10.922Z,97153.00
2023-04-25T17:22:39.258Z,97179.00
2023-04-25T17:25:09.892Z,97168.00
2023-04-25T17:27:39.487Z,97171.00
2023-04-25T17:30:09.456Z,97165.00
2023-04-25T17:32:37.792Z,97171.00
2023-04-25T17:35:06.996Z,97172.00
2023-04-25T17:37:35.308Z,97175.00
2023-04-25T17:40:05.009Z,97180.00
2023-04-25T17:42:33.204Z,97171.00
2023-04-25T17:45:02.714Z,97183.00
2023-04-25T17:47:32.034Z,97169.00
2023-04-25T17:50:00.308Z,97189.00
2023-04-25T17:52:29.131Z,97188.00
2023-04-25T17:54:57.427Z,97194.00
2023-04-25T17:57:26.321Z,97196.00
2023-04-25T17:59:56.157Z,97201.00
2023-04-25T18:02:26.062Z,97205.00
2023-04-25T18:04:54.594Z,97208.00
2023-04-25T18:07:23.531Z,97209.00
2023-04-25T18:09:51.694Z,97197.00
2023-04-25T18:12:21.489Z,97213.00
2023-04-25T18:14:49.791Z,97198.00
2023-04-25T18:17:18.185Z,97211.00
2023-04-25T18:19:48.767Z,97213.00
2023-04-25T18:22:17.630Z,97214.00
2023-04-25T18:24:46.391Z,97212.00
2023-04-25T18:27:14.825Z,97206.00
2023-04-25T18:29:45.273Z,97204.00
2023-04-25T18:32:13.899Z,97211.00
2023-04-25T18:34:43.821Z,97219.00
2023-04-25T18:37:14.329Z,97219.00
2023-04-25T18:39:42.829Z,97239.00
2023-04-25T18:42:11.121Z,97259.00
2023-04-25T18:44:40.888Z,97255.00
2023-04-25T18:47:10.215Z,97261.00
2023-04-25T18:49:38.578Z,97270.00
2023-04-25T18:52:10.240Z,97263.00
2023-04-25T18:54:40.208Z,97273.00
2023-04-25T18:57:09.327Z,97273.00
2023-04-25T18:59:37.548Z,97284.00
2023-04-25T19:02:06.566Z,97297.00
2023-04-25T19:04:35.300Z,97289.00
2023-04-25T19:07:04.100Z,97301.00
2023-04-25T19:09:32.492Z,97293.00
2023-04-25T19:12:03.197Z,97304.00
2023-04-25T19:14:33.609Z,97304.00
2023-04-25T19:17:02.083Z,97293.00
2023-04-25T19:19:30.491Z,97296.00
2023-04-25T19:21:59.976Z,97305.00
2023-04-25T19:24:28.517Z,97317.00
2023-04-25T19:26:56.801Z,97305.00
2023-04-25T19:29:26.317Z,97306.00
2023-04-25T19:31:57.091Z,97311.00
2023-04-25T19:34:25.456Z,97322.00
2023-04-25T19:36:54.267Z,97314.00
2023-04-25T19:39:23.845Z,97335.00
2023-04-25T19:41:52.146Z,97316.00
2023-04-25T19:44:20.356Z,97316.00
2023-04-25T19:46:50.513Z,97308.00
2023-04-25T19:49:18.854Z,97320.00
2023-04-25T19:51:47.075Z,97315.00
2023-04-25T19:54:15.236Z,97303.00
2023-04-25T19:56:43.582Z,97323.00
2023-04-25T19:59:11.877Z,97329.00
2023-04-25T20:01:40.263Z,97312.00
2023-04-25T20:04:12.689Z,97327.00
2023-04-25T20:06:40.918Z,97328.00
2023-04-25T20:09:09.577Z,97326.00
2023-04-25T20:11:37.743Z,97335.00
2023-04-25T20:14:06.261Z,97327.00
2023-04-25T20:16:34.500Z,97328.00
2023-04-25T20:19:02.799Z,97331.00
2023-04-25T20:21:33.211Z,97343.00
2023-04-25T20:24:02.233Z,97340.00
2023-04-25T20:26:33.780Z,97340.00
2023-04-25T20:29:02.248Z,97352.00
2023-04-25T20:31:31.947Z,97346.00
2023-04-25T20:34:00.960Z,97346.00
2023-04-25T20:36:29.685Z,97352.00
2023-04-25T20:38:59.614Z,97344.00
2023-04-25T20:41:27.964Z,97340.00
2023-04-25T20:43:56.917Z,97355.00
2023-04-25T20:46:25.451Z,97343.00
2023-04-25T20:48:53.827Z,97336.00
2023-04-25T20:51:23.042Z,97340.00
2023-04-25T20:53:51.366Z,97338.00
2023-04-25T20:56:20.973Z,97346.00
2023-04-25T20:58:49.231Z,97347.00
2023-04-25T21:01:18.439Z,97353.00
2023-04-25T21:03:48.384Z,97346.00
2023-04-25T21:06:16.937Z,97370.00
2023-04-25T21:08:45.487Z,97363.00
2023-04-25T21:11:13.852Z,97361.00
2023-04-25T21:13:43.504Z,97361.00
2023-04-25T21:16:12.185Z,97372.00
2023-04-25T21:18:40.350Z,97377.00
2023-04-25T21:21:09.019Z,97375.00
2023-04-25T21:23:37.236Z,97372.00
2023-04-25T21:26:05.983Z,97368.00
2023-04-25T21:28:34.258Z,97377.00
2023-04-25T21:31:04.638Z,97367.00
2023-04-25T21:33:32.900Z,97386.00
2023-04-25T21:36:01.190Z,97384.00
2023-04-25T21:38:29.419Z,97371.00
2023-04-25T21:40:57.651Z,97366.00
2023-04-25T21:43:25.941Z,97375.00
2023-04-25T21:46:19.017Z,97384.00
2023-04-25T21:48:43.620Z,97371.00
2023-04-25T21:51:12.070Z,97373.00
2023-04-25T21:53:40.371Z,97383.00
2023-04-25T21:56:09.053Z,97385.00
2023-04-25T21:58:37.445Z,97393.00
2023-04-25T22:01:05.871Z,97397.00
2023-04-25T22:03:34.671Z,97406.00
2023-04-25T22:06:04.887Z,97400.00
2023-04-25T22:08:33.101Z,97392.00
2023-04-25T22:11:02.883Z,97397.00
2023-04-25T22:13:33.329Z,97405.00
2023-04-25T22:16:01.533Z,97411.00
2023-04-25T22:18:30.451Z,97400.00
2023-04-25T22:20:58.700Z,97411.00
2023-04-25T22:23:28.943Z,97395.00
2023-04-25T22:25:57.050Z,97396.00
2023-04-25T22:28:25.288Z,97397.00
2023-04-25T22:30:53.532Z,97394.00
2023-04-25T22:33:21.987Z,97411.00
2023-04-25T22:35:50.186Z,97397.00
2023-04-25T22:38:18.518Z,97394.00
2023-04-25T22:40:48.331Z,97391.00
2023-04-25T22:43:16.895Z,97407.00
2023-04-25T22:45:45.277Z,97404.00
2023-04-25T22:48:13.620Z,97400.00
2023-04-25T22:50:41.758Z,97401.00
2023-04-25T22:53:10.313Z,97412.00
2023-04-25T22:55:38.592Z,97401.00
2023-04-25T22:58:09.382Z,97406.00
2023-04-25T23:00:37.916Z,97417.00
2023-04-25T23:03:06.822Z,97414.00
2023-04-25T23:05:35.073Z,97426.00
2023-04-25T23:08:03.490Z,97426.00
2023-04-25T23:10:31.770Z,97429.00
2023-04-25T23:13:00.830Z,97428.00
2023-04-25T23:15:31.293Z,97432.00
2023-04-25T23:17:59.718Z,97427.00
2023-04-25T23:20:28.033Z,97426.00
2023-04-25T23:22:56.620Z,97425.00
2023-04-25T23:25:24.949Z,97421.00
2023-04-25T23:27:53.397Z,97427.00
2023-04-25T23:30:22.408Z,97433.00
2023-04-25T23:32:53.109Z,97431.00
2023-04-25T23:35:21.540Z,97432.00
2023-04-25T23:37:50.025Z,97436.00
2023-04-25T23:40:18.549Z,97422.00
2023-04-25T23:42:46.753Z,97447.00
2023-04-25T23:45:16.507Z,97438.00
2023-04-25T23:47:44.891Z,97441.00
2023-04-25T23:50:14.465Z,97448.00
2023-04-25T23:52:42.914Z,97445.00
2023-04-25T23:55:11.324Z,97447.00
2023-04-25T23:57:39.517Z,97431.00
